Time;durP1;ratioP1;P1;durP2;ratioP2;P2;SDS_P1;SDS_P2;PMS_P1;PMS_P2;Temp;Humidity;BMP_temperature;BMP_pressure;BME280_temperature;BME280_humidity;BME280_pressure;Samples;Min_cycle;Max_cycle;Signal;HPM_P1;HPM_P2
2022/09/23 00:01:08;;;;;;;3.72;2.63;;;;;;;8.42;79.79;99296.09;5090195;28;20040;-58
2022/09/23 00:03:53;;;;;;;3.47;2.30;;;;;;;8.30;80.56;99292.31;5090951;28;20063;-56
2022/09/23 00:06:38;;;;;;;4.05;2.65;;;;;;;8.26;80.34;99289.88;5094752;28;20087;-55
2022/09/23 00:09:23;;;;;;;4.47;2.58;;;;;;;8.34;80.50;99294.69;5089740;28;20047;-52
2022/09/23 00:12:09;;;;;;;4.38;2.50;;;;;;;8.49;79.54;99290.47;5101746;28;20059;-59
2022/09/23 00:14:53;;;;;;;4.30;2.05;;;;;;;8.32;79.52;99290.47;5089567;28;20040;-55
2022/09/23 00:17:39;;;;;;;5.53;2.53;;;;;;;8.20;80.23;99284.97;5092990;28;20044;-57
2022/09/23 00:20:24;;;;;;;4.55;2.38;;;;;;;8.30;79.41;99287.09;5094057;28;20032;-56
2022/09/23 00:23:08;;;;;;;4.60;2.22;;;;;;;8.32;79.50;99286.13;5090819;28;20036;-54
2022/09/23 00:25:57;;;;;;;3.42;2.38;;;;;;;8.31;79.14;99281.78;5089119;28;20084;-56
2022/09/23 00:28:42;;;;;;;3.10;1.98;;;;;;;8.32;79.18;99280.03;5091135;28;20047;-55
2022/09/23 00:31:27;;;;;;;4.72;2.35;;;;;;;8.41;79.26;99276.94;5089751;28;20040;-56
2022/09/23 00:34:12;;;;;;;3.15;2.20;;;;;;;8.47;78.49;99274.00;5102020;28;20060;-57
2022/09/23 00:36:57;;;;;;;2.70;1.90;;;;;;;8.57;77.65;99270.97;5090811;28;20039;-55
2022/09/23 00:39:44;;;;;;;2.80;1.80;;;;;;;8.57;78.03;99279.63;5102249;28;20050;-56
2022/09/23 00:42:29;;;;;;;2.95;1.88;;;;;;;8.58;77.69;99276.13;5100194;28;20036;-56
2022/09/23 00:45:14;;;;;;;3.08;2.10;;;;;;;8.47;78.50;99267.97;5086947;28;20466;-51
2022/09/23 00:48:01;;;;;;;4.13;2.40;;;;;;;8.39;79.05;99273.56;5088543;28;20036;-55
2022/09/23 00:50:51;;;;;;;3.03;2.22;;;;;;;8.24;79.87;99262.97;5088096;28;20395;-54
2022/09/23 00:53:36;;;;;;;4.20;2.00;;;;;;;8.44;79.02;99262.88;5092987;28;20094;-55
2022/09/23 00:56:23;;;;;;;3.40;1.98;;;;;;;8.29;79.38;99254.91;5093140;28;21410;-60
2022/09/23 00:59:09;;;;;;;2.88;1.90;;;;;;;8.40;79.27;99258.75;5105502;28;20074;-56
2022/09/23 01:01:56;;;;;;;4.00;2.20;;;;;;;8.57;78.57;99261.34;5092200;28;20092;-57
2022/09/23 01:04:41;;;;;;;2.78;1.92;;;;;;;8.57;78.73;99252.69;5092627;28;20387;-57
2022/09/23 01:07:25;;;;;;;3.10;2.40;;;;;;;8.43;78.70;99258.59;5088219;28;20035;-53
2022/09/23 01:10:13;;;;;;;2.97;1.73;;;;;;;8.36;79.07;99251.06;5096301;28;20425;-57
2022/09/23 01:13:20;;;;;;;3.97;1.92;;;;;;;8.43;79.09;99242.94;5092033;28;20036;-57
2022/09/23 01:16:23;;;;;;;3.47;2.33;;;;;;;8.26;79.61;99245.47;5084665;28;20040;-59
2022/09/23 01:19:33;;;;;;;2.55;2.08;;;;;;;8.22;79.94;99243.97;5086739;28;20769;-58
2022/09/23 01:22:35;;;;;;;4.90;1.85;;;;;;;7.98;81.13;99246.88;5064429;28;20094;-56
2022/09/23 01:25:40;;;;;;;3.88;1.85;;;;;;;8.01;80.92;99244.13;5086674;28;20040;-57
2022/09/23 01:29:01;;;;;;;3.25;1.77;;;;;;;7.82;81.70;99243.34;5088027;28;20119;-56
2022/09/23 01:32:01;;;;;;;3.63;1.70;;;;;;;7.81;82.25;99247.72;5006939;28;20501;-55
2022/09/23 01:35:02;;;;;;;3.88;1.92;;;;;;;7.94;81.28;99245.34;5009285;28;20168;-58
2022/09/23 01:37:53;;;;;;;3.63;2.20;;;;;;;8.02;80.65;99242.34;4993117;28;20069;-57
2022/09/23 01:40:44;;;;;;;3.10;1.77;;;;;;;8.11;80.37;99243.66;4995249;28;20049;-55
2022/09/23 01:43:49;;;;;;;2.95;1.77;;;;;;;8.12;80.39;99245.34;4993948;28;20037;-54
2022/09/23 01:46:45;;;;;;;3.15;1.70;;;;;;;8.14;79.40;99244.34;5005832;28;20068;-56
2022/09/23 01:49:55;;;;;;;3.78;1.88;;;;;;;8.13;79.57;99241.81;5010085;28;20448;-55
2022/09/23 01:52:46;;;;;;;3.53;1.73;;;;;;;8.21;79.40;99242.25;5013522;28;20080;-59
2022/09/23 01:55:35;;;;;;;3.13;1.80;;;;;;;8.28;79.99;99240.19;5033451;28;20145;-54
2022/09/23 01:58:26;;;;;;;3.42;1.77;;;;;;;8.22;80.07;99243.97;5028890;28;20068;-55
2022/09/23 02:01:20;;;;;;;3.72;2.08;;;;;;;8.21;80.22;99244.88;5028646;28;21849;-56
2022/09/23 02:04:16;;;;;;;4.07;2.30;;;;;;;8.05;81.19;99244.81;5032461;28;20045;-56
2022/09/23 02:07:24;;;;;;;4.20;2.20;;;;;;;8.16;81.56;99239.03;5042940;28;20044;-55
2022/09/23 02:10:22;;;;;;;3.65;2.30;;;;;;;8.21;81.80;99234.44;5090161;28;20036;-56
2022/09/23 02:13:19;;;;;;;3.35;2.10;;;;;;;8.05;81.89;99236.97;5090863;28;20043;-56
2022/09/23 02:16:11;;;;;;;3.42;1.92;;;;;;;8.06;81.65;99237.84;5093472;28;20039;-51
2022/09/23 02:19:10;;;;;;;3.70;2.15;;;;;;;8.02;81.78;99237.13;5092148;28;20043;-55
2022/09/23 02:22:11;;;;;;;4.72;1.67;;;;;;;7.86;81.80;99226.63;5089433;28;20081;-56
2022/09/23 02:24:56;;;;;;;2.60;1.63;;;;;;;8.08;81.61;99230.78;5091739;28;20051;-56
2022/09/23 02:28:03;;;;;;;3.80;1.70;;;;;;;7.97;80.65;99231.31;5090812;28;20040;-58
2022/09/23 02:30:55;;;;;;;5.03;2.03;;;;;;;7.87;81.69;99226.56;5091655;28;20666;-57
2022/09/23 02:34:03;;;;;;;3.17;1.90;;;;;;;7.74;81.99;99230.69;5090908;28;20113;-56
2022/09/23 02:37:27;;;;;;;2.65;1.80;;;;;;;7.77;82.31;99225.31;5091337;28;20442;-58
2022/09/23 02:40:22;;;;;;;2.92;1.67;;;;;;;7.74;81.59;99222.84;5095099;28;20188;-58
2022/09/23 02:43:24;;;;;;;2.85;1.60;;;;;;;7.67;82.10;99224.91;5091246;28;20060;-54
2022/09/23 02:46:10;;;;;;;3.33;1.80;;;;;;;7.71;82.11;99233.44;5094042;28;20055;-54
2022/09/23 02:48:59;;;;;;;2.95;1.95;;;;;;;7.64;82.34;99223.31;5092063;28;20039;-56
2022/09/23 02:51:45;;;;;;;3.60;2.05;;;;;;;7.65;82.55;99224.19;5093463;28;20689;-55
2022/09/23 02:54:32;;;;;;;4.82;2.13;;;;;;;7.69;82.11;99223.09;5093194;28;20593;-55
2022/09/23 02:57:17;;;;;;;2.75;1.50;;;;;;;7.60;83.05;99224.41;5090814;28;20128;-58
2022/09/23 03:00:03;;;;;;;3.22;1.88;;;;;;;7.86;81.68;99218.81;5090704;28;20040;-56
2022/09/23 03:03:01;;;;;;;4.10;1.92;;;;;;;7.89;82.15;99219.50;5094359;28;20106;-57
2022/09/23 03:05:52;;;;;;;2.78;2.15;;;;;;;8.07;81.10;99216.88;5090913;28;20044;-58
2022/09/23 03:09:05;;;;;;;4.70;3.70;;;;;;;7.46;83.65;99219.03;5097848;28;20059;-56
2022/09/23 03:12:06;;;;;;;9.27;4.22;;;;;;;7.06;87.14;99222.59;5098929;27;20043;-57
2022/09/23 03:15:00;;;;;;;5.35;4.03;;;;;;;7.17;87.99;99221.22;5087375;28;20040;-52
2022/09/23 03:18:19;;;;;;;5.93;4.47;;;;;;;7.32;87.65;99217.91;5089749;28;20040;-59
2022/09/23 03:21:15;;;;;;;4.57;3.65;;;;;;;6.62;90.67;99224.56;5087001;28;20089;-59
2022/09/23 03:24:06;;;;;;;4.45;3.50;;;;;;;6.52;91.58;99218.94;5090443;28;20039;-57
2022/09/23 03:26:53;;;;;;;5.50;4.13;;;;;;;6.24;92.00;99216.69;5090104;28;20128;-59
2022/09/23 03:29:44;;;;;;;4.85;3.33;;;;;;;6.16;93.72;99225.66;5089175;28;20060;-57
2022/09/23 03:32:30;;;;;;;5.43;3.67;;;;;;;6.39;92.81;99217.78;5089653;28;20028;-56
2022/09/23 03:35:16;;;;;;;5.07;3.60;;;;;;;6.24;93.06;99220.13;5090155;28;20432;-58
2022/09/23 03:38:15;;;;;;;5.85;4.00;;;;;;;6.15;93.32;99212.72;5089766;28;20189;-58
2022/09/23 03:41:03;;;;;;;4.53;3.42;;;;;;;6.43;93.25;99214.09;5089002;28;20419;-59
2022/09/23 03:43:47;;;;;;;6.00;3.80;;;;;;;6.23;93.49;99215.00;5116137;27;20040;-58
2022/09/23 03:46:34;;;;;;;4.90;3.83;;;;;;;6.46;93.85;99214.00;5088861;28;20052;-58
2022/09/23 03:49:26;;;;;;;5.47;4.43;;;;;;;6.67;91.99;99219.16;5101343;27;20089;-58
2022/09/23 03:52:10;;;;;;;4.15;3.45;;;;;;;6.36;93.68;99221.38;5090138;28;20160;-56
2022/09/23 03:54:55;;;;;;;5.57;3.90;;;;;;;6.21;93.64;99225.47;5089345;28;20108;-56
2022/09/23 03:57:40;;;;;;;4.95;3.20;;;;;;;6.36;93.33;99213.56;5090004;28;20051;-58
2022/09/23 04:00:24;;;;;;;6.28;3.75;;;;;;;6.30;93.30;99218.19;5098501;28;20047;-57
2022/09/23 04:03:09;;;;;;;4.53;3.30;;;;;;;6.34;92.83;99217.13;5089293;28;20047;-58
2022/09/23 04:05:53;;;;;;;5.43;3.47;;;;;;;6.20;93.90;99223.75;5090583;28;20052;-58
2022/09/23 04:08:38;;;;;;;5.95;3.05;;;;;;;6.04;94.56;99219.22;5088569;28;20062;-58
2022/09/23 04:11:22;;;;;;;4.93;3.38;;;;;;;6.12;94.00;99221.50;5088484;28;20036;-57
2022/09/23 04:14:08;;;;;;;4.80;3.35;;;;;;;6.18;94.19;99222.16;5090841;28;20043;-58
2022/09/23 04:16:52;;;;;;;5.30;2.90;;;;;;;6.00;94.34;99215.06;5087044;28;20032;-56
2022/09/23 04:19:37;;;;;;;5.75;2.83;;;;;;;5.74;96.37;99214.38;5088962;28;20039;-56
2022/09/23 04:22:21;;;;;;;4.50;2.45;;;;;;;5.88;98.29;99215.53;5087424;28;20051;-58
2022/09/23 04:25:09;;;;;;;3.67;2.30;;;;;;;5.55;100.00;99209.94;5091619;28;20032;-56
2022/09/23 04:27:56;;;;;;;3.88;2.03;;;;;;;5.52;100.00;99206.59;5080327;28;20036;-56
2022/09/23 04:30:43;;;;;;;3.72;2.60;;;;;;;5.37;100.00;99197.69;5087474;28;20035;-57
2022/09/23 04:33:28;;;;;;;5.15;2.67;;;;;;;5.25;100.00;99194.69;5092798;28;20402;-55
2022/09/23 04:36:15;;;;;;;9.60;2.42;;;;;;;5.49;100.00;99198.94;5089830;28;20185;-58
2022/09/23 04:39:02;;;;;;;2.63;1.73;;;;;;;5.71;100.00;99198.06;5080274;28;20032;-59
2022/09/23 04:41:51;;;;;;;3.30;1.77;;;;;;;6.16;100.00;99193.59;5092430;28;20032;-54
2022/09/23 04:44:37;;;;;;;2.90;1.70;;;;;;;6.22;99.44;99201.13;5088083;28;20093;-57
2022/09/23 04:47:22;;;;;;;3.60;1.85;;;;;;;6.28;98.42;99202.63;5088053;28;20036;-60
2022/09/23 04:50:07;;;;;;;4.18;2.00;;;;;;;6.77;100.00;99196.97;5090525;28;20040;-59
2022/09/23 04:52:52;;;;;;;4.35;1.58;;;;;;;6.97;97.17;99202.19;5089883;28;20040;-55
2022/09/23 04:55:37;;;;;;;5.03;2.67;;;;;;;6.97;94.25;99205.63;5089454;28;20544;-59
2022/09/23 04:58:23;;;;;;;8.05;3.30;;;;;;;6.93;92.51;99211.91;5089837;28;20059;-57
2022/09/23 05:01:27;;;;;;;5.32;3.60;;;;;;;6.93;90.84;99209.28;5090393;28;20032;-56
2022/09/23 05:04:12;;;;;;;8.18;4.32;;;;;;;6.82;91.35;99216.75;5099769;28;20382;-59
2022/09/23 05:06:57;;;;;;;6.65;4.55;;;;;;;7.10;94.26;99215.50;5087849;28;20047;-58
2022/09/23 05:09:42;;;;;;;6.20;4.60;;;;;;;6.55;92.84;99214.47;5101549;28;20107;-59
2022/09/23 05:12:27;;;;;;;8.02;4.78;;;;;;;6.20;94.30;99218.56;5089675;28;20032;-59
2022/09/23 05:15:13;;;;;;;5.97;4.40;;;;;;;6.21;94.18;99228.06;5101999;28;20036;-58
2022/09/23 05:17:58;;;;;;;6.43;4.38;;;;;;;6.68;95.92;99226.03;5084754;28;21102;-59
2022/09/23 05:20:43;;;;;;;7.03;4.85;;;;;;;6.98;100.00;99220.34;5089300;28;20081;-59
2022/09/23 05:23:29;;;;;;;7.35;5.13;;;;;;;6.53;94.66;99228.41;5090288;28;20032;-57
2022/09/23 05:26:14;;;;;;;8.70;4.90;;;;;;;6.56;93.41;99231.81;5088290;28;20621;-57
2022/09/23 05:28:59;;;;;;;7.97;4.75;;;;;;;6.55;94.23;99237.91;5076890;28;20552;-59
2022/09/23 05:31:44;;;;;;;6.85;4.93;;;;;;;6.70;93.95;99236.38;5091835;28;20048;-58
2022/09/23 05:34:29;;;;;;;7.97;4.75;;;;;;;6.99;92.23;99235.06;5091414;28;20486;-57
2022/09/23 05:37:13;;;;;;;7.13;4.57;;;;;;;6.85;92.06;99240.91;5089381;28;20028;-58
2022/09/23 05:39:58;;;;;;;6.75;4.30;;;;;;;7.06;91.92;99234.78;5093940;28;20109;-59
2022/09/23 05:42:43;;;;;;;7.05;4.30;;;;;;;7.37;90.27;99246.34;5095694;28;20115;-59
2022/09/23 05:45:28;;;;;;;6.43;4.18;;;;;;;7.75;88.47;99243.66;5102334;28;20040;-59
2022/09/23 05:48:12;;;;;;;7.82;4.90;;;;;;;7.71;88.67;99243.88;5093321;28;20363;-59
2022/09/23 05:50:58;;;;;;;6.80;4.32;;;;;;;7.72;88.80;99243.81;5107407;27;20035;-58
2022/09/23 05:53:44;;;;;;;6.72;4.57;;;;;;;7.86;88.65;99239.69;5098392;28;20044;-58
2022/09/23 05:56:30;;;;;;;7.72;4.65;;;;;;;8.03;87.50;99251.88;5096631;28;20097;-59
2022/09/23 05:59:14;;;;;;;7.18;4.63;;;;;;;8.11;88.04;99252.31;5093385;28;20391;-58
2022/09/23 06:01:59;;;;;;;6.50;4.72;;;;;;;8.43;86.04;99250.75;5092191;28;20333;-58
2022/09/23 06:04:44;;;;;;;7.20;5.13;;;;;;;8.41;86.13;99245.63;5090622;28;20070;-59
2022/09/23 06:07:30;;;;;;;8.82;5.82;;;;;;;8.97;84.13;99250.56;5091425;28;20046;-59
2022/09/23 06:10:14;;;;;;;10.50;5.57;;;;;;;9.20;82.36;99243.25;5089023;28;20425;-59
2022/09/23 06:12:59;;;;;;;8.77;5.90;;;;;;;9.40;81.94;99243.88;5091094;28;20391;-59
2022/09/23 06:15:44;;;;;;;11.35;7.38;;;;;;;9.34;81.14;99239.00;5096674;28;20056;-59
2022/09/23 06:18:29;;;;;;;13.40;7.40;;;;;;;9.26;80.77;99252.50;5091315;28;20481;-59
2022/09/23 06:21:15;;;;;;;13.55;6.95;;;;;;;8.99;82.94;99255.72;5074499;28;20036;-59
2022/09/23 06:24:01;;;;;;;9.05;5.82;;;;;;;9.84;80.64;99255.34;5094519;28;20127;-58
2022/09/23 06:26:46;;;;;;;9.05;6.30;;;;;;;10.05;79.13;99260.28;5088951;28;20047;-59
2022/09/23 06:29:32;;;;;;;8.43;4.93;;;;;;;9.91;78.24;99262.84;5090063;28;20044;-58
2022/09/23 06:32:16;;;;;;;7.70;4.80;;;;;;;10.20;77.44;99257.72;5098961;28;20036;-59
2022/09/23 06:35:01;;;;;;;7.20;4.85;;;;;;;10.54;76.38;99255.69;5091113;28;20455;-58
2022/09/23 06:37:46;;;;;;;8.85;4.40;;;;;;;10.69;75.46;99266.19;5095232;28;20047;-59
2022/09/23 06:40:31;;;;;;;8.65;4.25;;;;;;;10.83;76.39;99262.72;5096260;28;20185;-59
2022/09/23 06:43:15;;;;;;;7.50;4.82;;;;;;;11.18;74.69;99264.91;5102937;28;20379;-59
2022/09/23 06:46:02;;;;;;;7.85;4.50;;;;;;;11.62;72.56;99264.75;5094646;28;20051;-59
2022/09/23 06:48:48;;;;;;;6.18;4.65;;;;;;;11.69;72.34;99268.69;5091355;28;20082;-60
2022/09/23 06:51:33;;;;;;;4.78;3.55;;;;;;;12.17;71.49;99277.00;5094941;28;20426;-59
2022/09/23 06:54:17;;;;;;;5.53;4.10;;;;;;;12.88;68.27;99276.56;5089359;28;20360;-60
2022/09/23 06:57:02;;;;;;;6.30;4.07;;;;;;;12.79;67.73;99280.72;5092742;28;20489;-59
2022/09/23 06:59:46;;;;;;;6.75;4.07;;;;;;;12.89;67.99;99275.63;5092560;28;20028;-59
2022/09/23 07:02:32;;;;;;;7.78;4.43;;;;;;;13.34;66.23;99276.03;5093295;28;20456;-58
2022/09/23 07:05:16;;;;;;;6.35;4.20;;;;;;;13.71;65.21;99275.19;5094199;28;20035;-58
2022/09/23 07:08:02;;;;;;;7.13;4.40;;;;;;;13.66;65.01;99268.47;5091148;28;20047;-59
2022/09/23 07:10:54;;;;;;;6.72;4.20;;;;;;;13.84;65.11;99268.03;5093381;28;20115;-59
2022/09/23 07:13:41;;;;;;;6.25;4.43;;;;;;;14.06;64.49;99270.88;5094451;28;20040;-59
2022/09/23 07:16:25;;;;;;;7.13;4.35;;;;;;;14.60;62.66;99271.22;5090467;28;20038;-59
2022/09/23 07:19:11;;;;;;;6.50;4.00;;;;;;;15.00;61.15;99273.38;5091644;28;20047;-59
2022/09/23 07:21:59;;;;;;;6.25;4.22;;;;;;;15.42;59.97;99277.16;5092071;28;20040;-59
2022/09/23 07:24:45;;;;;;;6.82;4.65;;;;;;;15.28;58.94;99278.25;5093426;27;20126;-60
2022/09/23 07:27:29;;;;;;;7.93;4.38;;;;;;;14.65;61.67;99280.44;5094079;27;20043;-60
2022/09/23 07:30:15;;;;;;;5.68;4.07;;;;;;;15.47;59.02;99274.16;5087193;27;20046;-61
2022/09/23 07:32:59;;;;;;;5.75;4.10;;;;;;;15.68;57.49;99270.72;5099623;27;20063;-59
2022/09/23 07:35:44;;;;;;;6.32;3.60;;;;;;;15.59;58.96;99273.13;5089933;28;20398;-59
2022/09/23 07:38:28;;;;;;;5.57;3.65;;;;;;;16.30;57.11;99278.00;5089174;28;20044;-59
2022/09/23 07:41:16;;;;;;;5.35;3.55;;;;;;;16.52;56.02;99284.13;5092049;28;20134;-58
2022/09/23 07:44:02;;;;;;;5.80;3.53;;;;;;;16.82;55.14;99277.13;5088449;28;20117;-58
2022/09/23 07:46:50;;;;;;;7.22;3.50;;;;;;;17.16;53.30;99286.59;5100490;28;20055;-58
2022/09/23 07:49:35;;;;;;;6.07;3.95;;;;;;;16.83;53.57;99284.94;5101000;28;20118;-58
2022/09/23 07:52:19;;;;;;;5.82;3.72;;;;;;;17.40;60.92;99277.47;5093058;28;20465;-59
2022/09/23 07:55:05;;;;;;;5.10;3.50;;;;;;;17.33;52.65;99287.78;5113999;27;20032;-58
2022/09/23 07:57:50;;;;;;;4.95;3.33;;;;;;;17.73;51.97;99276.25;5097878;28;20431;-54
2022/09/23 08:00:35;;;;;;;4.90;3.47;;;;;;;18.13;50.97;99276.25;5112080;27;20164;-59
2022/09/23 08:03:20;;;;;;;6.15;3.53;;;;;;;18.39;50.58;99269.47;5129851;27;20067;-59
2022/09/23 08:06:09;;;;;;;5.50;3.78;;;;;;;18.31;50.39;99273.69;5109194;28;20127;-58
2022/09/23 08:08:57;;;;;;;5.28;3.28;;;;;;;17.79;51.41;99274.00;5101930;27;20275;-59
2022/09/23 08:11:41;;;;;;;6.07;3.55;;;;;;;17.27;52.80;99280.38;5108924;27;20473;-59
2022/09/23 08:14:26;;;;;;;5.82;3.13;;;;;;;17.63;52.58;99278.03;5106835;27;20158;-59
2022/09/23 08:17:13;;;;;;;4.10;2.90;;;;;;;17.36;53.68;99267.13;5104118;27;20052;-59
2022/09/23 08:19:57;;;;;;;4.60;3.05;;;;;;;17.40;53.61;99265.06;5106621;27;20044;-59
2022/09/23 08:22:42;;;;;;;5.20;3.53;;;;;;;17.83;52.38;99268.28;5108508;27;20043;-59
2022/09/23 08:25:27;;;;;;;4.78;3.38;;;;;;;18.18;51.67;99257.25;5105322;27;20085;-59
2022/09/23 08:28:17;;;;;;;6.40;3.40;;;;;;;18.17;51.40;99259.06;5105509;28;20180;-58
2022/09/23 08:31:02;;;;;;;6.28;3.38;;;;;;;18.25;50.78;99262.84;5089723;28;20048;-59
2022/09/23 08:33:53;;;;;;;5.93;3.38;;;;;;;18.34;51.08;99262.78;5092337;28;20048;-59
2022/09/23 08:36:38;;;;;;;5.45;3.50;;;;;;;18.56;50.24;99260.78;5108803;28;20043;-59
2022/09/23 08:39:22;;;;;;;5.68;3.40;;;;;;;18.94;49.96;99259.91;5087962;28;20052;-59
2022/09/23 08:42:18;;;;;;;4.78;3.05;;;;;;;19.35;48.88;99259.56;5089240;28;20081;-59
2022/09/23 08:45:06;;;;;;;6.93;2.97;;;;;;;19.81;48.30;99267.44;5103961;28;20409;-59
2022/09/23 08:48:09;;;;;;;5.18;2.92;;;;;;;20.30;46.62;99260.84;5093067;28;20494;-59
2022/09/23 08:51:02;;;;;;;5.35;3.45;;;;;;;20.58;45.91;99259.03;5091812;28;20376;-59
2022/09/23 08:53:48;;;;;;;5.03;2.95;;;;;;;20.87;45.61;99261.31;5087687;28;20123;-59
2022/09/23 08:56:36;;;;;;;5.03;2.53;;;;;;;20.83;45.84;99259.97;5089232;28;20145;-59
2022/09/23 08:59:39;;;;;;;5.68;2.97;;;;;;;21.12;44.35;99258.75;5102136;28;20066;-59
2022/09/23 09:02:24;;;;;;;4.05;2.60;;;;;;;21.14;44.74;99255.94;5116536;28;20059;-58
2022/09/23 09:05:11;;;;;;;4.78;2.90;;;;;;;21.52;43.57;99247.50;5101677;28;20123;-58
2022/09/23 09:07:59;;;;;;;4.38;3.03;;;;;;;20.43;46.24;99243.66;5088431;28;20118;-58
2022/09/23 09:10:46;;;;;;;4.35;2.33;;;;;;;20.87;45.33;99253.34;5095109;28;20117;-58
2022/09/23 09:13:34;;;;;;;5.45;2.50;;;;;;;21.70;42.97;99236.69;5098185;28;20036;-58
2022/09/23 09:16:45;;;;;;;4.80;2.25;;;;;;;22.51;41.06;99245.75;5093721;28;20064;-58
2022/09/23 09:19:46;;;;;;;7.22;2.88;;;;;;;22.16;41.12;99240.69;5091679;28;20085;-58
2022/09/23 09:22:47;;;;;;;4.20;2.67;;;;;;;22.07;41.88;99237.19;5092330;28;20027;-58
2022/09/23 09:25:43;;;;;;;4.50;2.45;;;;;;;21.67;42.43;99245.03;5097642;28;20071;-58
2022/09/23 09:28:36;;;;;;;3.75;2.10;;;;;;;22.47;41.33;99226.63;5091695;28;20040;-58
2022/09/23 09:31:41;;;;;;;5.57;2.20;;;;;;;22.05;41.38;99230.38;5090289;28;20093;-59
2022/09/23 09:34:46;;;;;;;4.00;2.60;;;;;;;21.91;42.03;99230.06;5095772;28;20058;-59
2022/09/23 09:37:43;;;;;;;4.93;3.30;;;;;;;21.96;41.13;99230.38;5093312;28;20051;-59
2022/09/23 09:40:28;;;;;;;5.68;2.40;;;;;;;21.70;42.08;99217.19;5097980;28;20032;-59
2022/09/23 09:43:25;;;;;;;3.55;2.30;;;;;;;22.28;40.78;99219.81;5089595;28;20490;-60
2022/09/23 09:46:32;;;;;;;2.90;2.28;;;;;;;22.58;39.88;99217.41;5092178;28;20075;-60
2022/09/23 09:49:28;;;;;;;6.38;2.50;;;;;;;23.40;38.99;99205.66;5092219;28;20046;-60
2022/09/23 09:52:22;;;;;;;3.58;1.90;;;;;;;22.92;38.84;99210.09;5092950;28;20048;-60
2022/09/23 09:55:12;;;;;;;3.17;2.10;;;;;;;23.43;38.52;99207.97;5091258;28;20054;-58
2022/09/23 09:58:04;;;;;;;3.42;1.92;;;;;;;23.24;37.72;99200.19;5094781;28;20040;-59
2022/09/23 10:00:51;;;;;;;2.92;1.80;;;;;;;23.13;38.44;99203.28;5092815;28;20062;-60
2022/09/23 10:03:42;;;;;;;3.25;2.13;;;;;;;23.67;37.77;99198.06;5091581;28;20467;-59
2022/09/23 10:06:29;;;;;;;3.42;1.80;;;;;;;23.80;37.19;99195.63;5090974;28;20067;-59
2022/09/23 10:09:20;;;;;;;3.15;1.63;;;;;;;23.97;37.14;99190.94;5099699;28;20070;-59
2022/09/23 10:12:17;;;;;;;;;;;;;;;23.42;38.53;99199.09;5092260;28;20112;-59
2022/09/23 10:15:41;;;;;;;2.00;1.40;;;;;;;24.80;36.27;99196.38;5102852;27;20394;-59
2022/09/23 10:18:50;;;;;;;3.25;1.95;;;;;;;24.07;36.99;99192.53;5097883;28;20035;-59
2022/09/23 10:21:36;;;;;;;2.75;1.50;;;;;;;23.96;37.22;99188.47;5090577;28;20058;-61
2022/09/23 10:24:24;;;;;;;4.40;2.10;;;;;;;23.95;36.95;99195.66;5089222;28;20119;-58
2022/09/23 10:27:12;;;;;;;3.78;1.60;;;;;;;24.42;36.61;99191.97;5098935;28;20195;-59
2022/09/23 10:30:00;;;;;;;3.00;1.38;;;;;;;25.06;35.13;99193.19;5091370;28;20032;-58
2022/09/23 10:32:45;;;;;;;3.03;1.58;;;;;;;25.10;34.82;99182.94;5092488;28;20547;-60
2022/09/23 10:35:32;;;;;;;2.70;1.40;;;;;;;25.67;33.65;99180.34;5105053;27;20100;-60
2022/09/23 10:38:17;;;;;;;2.50;1.50;;;;;;;24.06;35.63;99183.66;5090601;28;20524;-59
2022/09/23 10:47:49;;;;;;;2.97;1.40;;;;;;;25.31;34.15;99179.41;5091014;28;20062;-59
2022/09/23 10:50:38;;;;;;;4.22;1.30;;;;;;;25.55;33.17;99166.63;5093352;28;20115;-59
2022/09/23 10:53:41;;;;;;;2.38;1.13;;;;;;;24.81;34.83;99179.28;5099343;28;20051;-59
2022/09/23 10:56:36;;;;;;;1.80;1.15;;;;;;;24.94;34.19;99187.50;5089738;28;20130;-58
2022/09/23 10:59:42;;;;;;;2.35;1.25;;;;;;;25.40;31.90;99168.56;5091317;28;20501;-59
2022/09/23 11:02:39;;;;;;;1.77;1.05;;;;;;;25.11;31.11;99173.88;5093483;28;20032;-59
2022/09/23 11:05:54;;;;;;;2.63;1.05;;;;;;;25.55;33.52;99157.75;5090847;28;20462;-53
2022/09/23 11:09:18;;;;;;;2.35;1.00;;;;;;;25.63;32.60;99160.31;5074955;28;20040;-52
2022/09/23 11:12:20;;;;;;;1.02;0.77;;;;;;;24.91;33.70;99165.59;5063406;28;20048;-60
2022/09/23 11:15:11;;;;;;;1.40;0.70;;;;;;;25.99;32.55;99153.13;5075324;28;20047;-60
2022/09/23 11:18:16;;;;;;;3.47;0.70;;;;;;;24.16;31.91;99156.66;5070377;28;20513;-60
2022/09/23 11:21:06;;;;;;;1.05;0.50;;;;;;;25.15;31.21;99155.56;5054179;28;20047;-59
2022/09/23 11:24:16;;;;;;;1.65;0.90;;;;;;;24.94;29.03;99152.66;5072243;28;20493;-60
2022/09/23 11:27:07;;;;;;;;;;;;;;;23.07;31.16;99139.88;5067726;28;20159;-60
2022/09/23 11:30:07;;;;;;;1.35;0.63;;;;;;;24.20;30.17;99141.06;5073962;28;20418;-60
2022/09/23 11:33:34;;;;;;;2.10;0.88;;;;;;;23.31;31.28;99138.03;5075090;28;20036;-58
2022/09/23 11:36:31;;;;;;;1.25;0.70;;;;;;;23.98;30.29;99135.59;5038006;28;20119;-58
2022/09/23 11:39:21;;;;;;;1.02;0.70;;;;;;;24.36;28.97;99127.50;5054004;28;20161;-56
2022/09/23 11:42:20;;;;;;;1.25;0.60;;;;;;;24.00;28.90;99125.53;5045480;28;20383;-52
2022/09/23 11:45:13;;;;;;;1.60;0.60;;;;;;;24.18;27.06;99124.38;5029042;28;20150;-61
2022/09/23 11:48:37;;;;;;;2.00;0.60;;;;;;;23.28;28.99;99117.84;5043776;28;20124;-55
2022/09/23 11:51:37;;;;;;;1.40;0.90;;;;;;;23.83;31.63;99119.53;5012304;28;20045;-48
2022/09/23 11:54:29;;;;;;;2.03;0.82;;;;;;;24.46;30.37;99121.84;5029327;28;20052;-49
2022/09/23 11:57:24;;;;;;;2.70;0.93;;;;;;;24.79;31.01;99119.72;5009634;28;20068;-49
2022/09/23 12:00:20;;;;;;;1.70;0.77;;;;;;;26.02;28.54;99109.81;5040968;28;20477;-50
2022/09/23 12:03:33;;;;;;;1.05;0.70;;;;;;;25.83;28.18;99104.16;5026670;28;20040;-57
2022/09/23 12:06:25;;;;;;;1.60;0.68;;;;;;;26.43;28.37;99104.63;5042592;28;20469;-60
2022/09/23 12:09:21;;;;;;;1.45;0.70;;;;;;;25.27;28.75;99103.09;5043493;28;20086;-51
2022/09/23 12:12:11;;;;;;;1.50;0.75;;;;;;;24.35;28.14;99096.38;5076587;28;20048;-57
2022/09/23 12:15:12;;;;;;;1.30;0.50;;;;;;;24.64;27.51;99098.34;5093232;28;20453;-52
2022/09/23 12:18:34;;;;;;;0.80;0.50;;;;;;;22.17;28.85;99090.31;5092377;28;20032;-52
2022/09/23 12:21:37;;;;;;;1.88;0.80;;;;;;;22.60;29.39;99094.47;5039080;28;20084;-54
2022/09/23 12:24:45;;;;;;;2.25;0.55;;;;;;;23.83;27.01;99090.09;5055647;28;20847;-58
2022/09/23 12:27:46;;;;;;;1.42;0.70;;;;;;;25.29;27.26;99087.66;5066618;28;20047;-55
2022/09/23 12:30:35;;;;;;;2.08;0.70;;;;;;;25.02;27.37;99091.97;5058383;28;20048;-57
2022/09/23 12:33:23;;;;;;;2.03;0.50;;;;;;;25.94;26.63;99077.75;5066859;28;20032;-60
2022/09/23 12:36:11;;;;;;;1.75;0.55;;;;;;;23.99;28.29;99087.25;5061949;28;20143;-61
2022/09/23 12:39:07;;;;;;;1.58;0.60;;;;;;;24.06;27.73;99084.66;5045537;28;20059;-60
2022/09/23 12:42:01;;;;;;;1.52;0.90;;;;;;;24.50;27.44;99081.31;5061008;28;20047;-55
2022/09/23 12:44:48;;;;;;;2.45;0.65;;;;;;;25.07;26.25;99076.94;5061111;28;20072;-53
2022/09/23 12:47:37;;;;;;;0.90;0.50;;;;;;;25.06;25.96;99077.13;5045629;28;20044;-54
2022/09/23 12:50:46;;;;;;;1.77;0.57;;;;;;;26.79;24.35;99073.13;5060133;28;20094;-58
2022/09/23 12:53:33;;;;;;;0.60;0.30;;;;;;;27.26;23.96;99070.47;5063249;28;20553;-58
2022/09/23 12:56:18;;;;;;;1.45;0.30;;;;;;;25.81;25.22;99067.78;5063827;28;20094;-52
2022/09/23 12:59:11;;;;;;;0.73;0.40;;;;;;;26.96;23.84;99061.97;5093411;28;20096;-57
2022/09/23 13:02:17;;;;;;;1.48;0.40;;;;;;;26.57;24.34;99058.00;5099505;28;20137;-59
2022/09/23 13:08:22;;;;;;;1.10;0.47;;;;;;;26.85;24.21;99045.41;5075717;28;20057;-59
2022/09/23 13:11:21;;;;;;;0.65;0.40;;;;;;;25.91;24.40;99049.50;5097472;28;20760;-58
2022/09/23 13:14:06;;;;;;;0.57;0.28;;;;;;;26.76;22.71;99046.66;5085992;28;20123;-58
2022/09/23 13:16:52;;;;;;;0.98;0.43;;;;;;;26.23;23.96;99043.63;5084831;28;20051;-59
2022/09/23 13:19:45;;;;;;;0.75;0.35;;;;;;;26.89;23.01;99037.78;5090043;28;20071;-60
2022/09/23 13:22:58;;;;;;;1.23;0.30;;;;;;;27.77;22.17;99037.72;5084724;28;20043;-57
2022/09/23 13:25:43;;;;;;;0.80;0.45;;;;;;;27.26;22.81;99029.31;5088433;28;20433;-58
2022/09/23 13:28:42;;;;;;;1.33;0.40;;;;;;;25.90;24.72;99037.09;5087705;28;20051;-59
2022/09/23 13:31:27;;;;;;;0.88;0.30;;;;;;;25.42;24.63;99030.63;5086430;28;20036;-59
2022/09/23 13:34:15;;;;;;;0.43;0.20;;;;;;;26.62;23.33;99025.16;5087542;28;20139;-59
2022/09/23 13:37:44;;;;;;;1.73;0.50;;;;;;;24.14;25.97;99024.88;5085455;28;20044;-58
2022/09/23 13:40:30;;;;;;;0.40;0.20;;;;;;;25.36;24.98;99015.31;5087861;28;20485;-58